createdAt,value
2019-05-03T00:03:49.406Z,77.70
2019-05-03T00:06:16.135Z,78.23
2019-05-03T00:08:42.852Z,78.12
2019-05-03T00:11:09.612Z,78.49
2019-05-03T00:13:36.366Z,78.33
2019-05-03T00:18:46.902Z,78.04
2019-05-03T00:21:13.600Z,77.77
2019-05-03T00:23:41.844Z,78.19
2019-05-03T00:26:15.266Z,78.66
2019-05-03T00:28:42.633Z,78.59
2019-05-03T00:31:17.020Z,78.34
2019-05-03T00:39:41.742Z,77.91
2019-05-03T00:42:14.610Z,77.95
2019-05-03T00:44:42.216Z,78.02
2019-05-03T00:47:16.329Z,77.84
2019-05-03T00:49:42.942Z,78.14
2019-05-03T00:52:11.645Z,78.04
2019-05-03T00:54:47.995Z,78.11
2019-05-03T00:57:14.605Z,78.20
2019-05-03T00:59:42.034Z,77.87
2019-05-03T01:02:16.621Z,78.46
2019-05-03T01:04:43.233Z,78.63
2019-05-03T01:07:11.575Z,78.86
2019-05-03T01:09:48.049Z,78.89
2019-05-03T01:12:14.685Z,78.72
2019-05-03T01:17:36.033Z,78.83
2019-05-03T01:20:03.017Z,79.09
2019-05-03T01:22:29.696Z,78.87
2019-05-03T01:24:56.315Z,79.03
2019-05-03T01:27:22.954Z,79.17
2019-05-03T01:29:49.576Z,79.09
2019-05-03T01:32:16.282Z,78.94
2019-05-03T01:34:42.923Z,79.02
2019-05-03T01:37:09.510Z,79.13
2019-05-03T01:39:36.138Z,78.79
2019-05-03T01:42:02.810Z,78.48
2019-05-03T01:44:29.460Z,78.14
2019-05-03T01:50:09.975Z,78.37
2019-05-03T01:55:46.405Z,78.13
2019-05-03T01:58:21.776Z,78.76
2019-05-03T02:04:03.044Z,79.06
2019-05-03T02:06:31.763Z,79.19
2019-05-03T02:09:05.240Z,79.13
2019-05-03T02:11:32.635Z,79.17
2019-05-03T02:14:06.661Z,79.27
2019-05-03T02:16:33.272Z,79.26
2019-05-03T02:18:59.885Z,79.02
2019-05-03T02:21:26.614Z,78.87
2019-05-03T02:23:53.359Z,78.84
2019-05-03T02:26:19.988Z,78.84
2019-05-03T02:28:46.588Z,78.22
2019-05-03T02:31:13.878Z,78.28
2019-05-03T02:33:48.145Z,78.25
2019-05-03T02:36:14.754Z,78.29
2019-05-03T02:38:42.949Z,78.44
2019-05-03T02:41:16.217Z,78.45
2019-05-03T02:43:48.099Z,78.48
2019-05-03T02:46:41.812Z,78.56
2019-05-03T02:49:37.081Z,78.61
2019-05-03T02:52:06.378Z,78.68
2019-05-03T02:54:32.316Z,78.57
2019-05-03T02:56:58.962Z,78.95
2019-05-03T02:59:26.387Z,78.81
2019-05-03T03:01:55.747Z,78.99
2019-05-03T03:04:21.856Z,78.43
2019-05-03T03:06:48.508Z,79.10
2019-05-03T03:09:16.461Z,79.03
2019-05-03T03:11:45.627Z,78.82
2019-05-03T03:14:12.115Z,78.58
2019-05-03T03:16:38.888Z,78.60
2019-05-03T03:19:06.686Z,78.53
2019-05-03T03:21:36.442Z,78.77
2019-05-03T03:24:06.937Z,78.95
2019-05-03T03:26:39.312Z,78.99
2019-05-03T03:29:05.326Z,78.33
2019-05-03T03:31:37.999Z,78.25
2019-05-03T03:34:08.074Z,78.00
2019-05-03T03:36:57.954Z,78.04
2019-05-03T03:39:06.107Z,78.08
2019-05-03T03:41:35.230Z,78.06
2019-05-03T03:44:01.613Z,78.11
2019-05-03T03:46:31.859Z,78.26
2019-05-03T03:48:56.831Z,78.13
2019-05-03T03:51:26.146Z,78.16
2019-05-03T03:53:52.291Z,78.21
2019-05-03T03:56:18.919Z,78.17
2019-05-03T03:58:46.433Z,78.23
2019-05-03T04:01:15.654Z,78.11
2019-05-03T04:03:41.903Z,78.33
2019-05-03T04:06:08.622Z,78.51
2019-05-03T04:08:35.994Z,78.22
2019-05-03T04:11:03.053Z,78.21
2019-05-03T04:13:29.662Z,78.43
2019-05-03T04:16:21.644Z,78.67
2019-05-03T04:18:55.998Z,78.74
2019-05-03T04:21:25.268Z,78.53
2019-05-03T04:23:51.102Z,78.90
2019-05-03T04:26:17.732Z,78.75
2019-05-03T04:28:45.354Z,78.52
2019-05-03T04:31:12.209Z,78.27
2019-05-03T04:33:38.910Z,78.66
2019-05-03T04:36:05.655Z,78.18
2019-05-03T04:38:32.370Z,78.59
2019-05-03T04:40:58.969Z,78.03
2019-05-03T04:43:26.378Z,78.70
2019-05-03T04:46:21.882Z,78.47
2019-05-03T04:48:48.645Z,78.00
2019-05-03T04:51:16.649Z,77.38
2019-05-03T04:53:47.585Z,77.65
2019-05-03T04:56:16.901Z,76.87
2019-05-03T04:58:45.671Z,76.44
2019-05-03T05:01:11.250Z,74.96
2019-05-03T05:03:37.839Z,75.36
2019-05-03T05:06:06.233Z,74.41
2019-05-03T05:08:35.586Z,75.08
2019-05-03T05:11:01.527Z,74.71
2019-05-03T05:13:28.256Z,76.04
2019-05-03T05:15:55.183Z,74.99
2019-05-03T05:18:28.237Z,74.65
2019-05-03T05:21:00.286Z,75.31
2019-05-03T05:23:26.902Z,75.44
2019-05-03T05:26:05.501Z,76.65
2019-05-03T05:28:39.051Z,76.00
2019-05-03T05:31:05.809Z,73.90
2019-05-03T05:33:32.449Z,73.22
2019-05-03T05:35:59.102Z,72.67
2019-05-03T05:38:25.823Z,72.31
2019-05-03T05:40:52.472Z,73.25
2019-05-03T05:43:19.092Z,73.71
2019-05-03T05:45:45.711Z,73.45
2019-05-03T05:48:15.380Z,73.85
2019-05-03T05:50:44.894Z,74.14
2019-05-03T05:53:11.789Z,74.65
2019-05-03T05:56:00.767Z,74.57
2019-05-03T05:58:31.319Z,75.15
2019-05-03T06:01:05.539Z,74.80
2019-05-03T06:03:34.334Z,75.91
2019-05-03T06:06:05.278Z,74.66
2019-05-03T06:08:44.652Z,75.00
2019-05-03T06:11:31.458Z,74.73
2019-05-03T06:14:26.960Z,75.32
2019-05-03T06:17:01.009Z,75.70
2019-05-03T06:19:46.119Z,74.87
2019-05-03T06:22:22.238Z,75.42
2019-05-03T06:24:54.347Z,74.67
2019-05-03T06:27:46.540Z,74.71
2019-05-03T06:30:32.688Z,74.04
2019-05-03T06:32:59.420Z,74.12
2019-05-03T06:35:26.064Z,74.82
2019-05-03T06:37:54.526Z,74.25
2019-05-03T06:40:25.256Z,74.90
2019-05-03T06:42:57.244Z,74.55
2019-05-03T06:45:21.400Z,74.99
2019-05-03T06:47:50.009Z,74.58
2019-05-03T06:50:19.592Z,75.02
2019-05-03T06:52:45.148Z,75.08
2019-05-03T06:55:11.775Z,75.00
2019-05-03T06:57:45.564Z,74.47
2019-05-03T07:00:28.746Z,75.38
2019-05-03T07:03:04.904Z,75.71
2019-05-03T07:05:49.776Z,75.85
2019-05-03T07:08:37.660Z,75.40
2019-05-03T07:11:05.200Z,74.94
2019-05-03T07:13:32.057Z,74.27
2019-05-03T07:15:58.802Z,74.19
2019-05-03T07:18:25.452Z,73.92
2019-05-03T07:20:57.072Z,74.31
2019-05-03T07:23:24.494Z,74.34
2019-05-03T07:25:51.264Z,74.83
2019-05-03T07:28:17.898Z,75.00
2019-05-03T07:30:45.431Z,74.33
2019-05-03T07:33:18.959Z,75.30
2019-05-03T07:35:45.608Z,74.50
2019-05-03T07:38:12.297Z,73.58
2019-05-03T07:40:38.944Z,74.55
2019-05-03T07:43:05.672Z,74.52
2019-05-03T07:45:32.349Z,74.76
2019-05-03T07:47:59.032Z,75.23
2019-05-03T07:50:26.069Z,75.69
2019-05-03T07:52:52.759Z,75.37
2019-05-03T07:55:39.467Z,75.44
2019-05-03T07:58:06.545Z,75.21
2019-05-03T08:00:34.373Z,75.84
2019-05-03T08:03:01.404Z,75.08
2019-05-03T08:05:28.069Z,74.29
2019-05-03T08:07:55.386Z,74.18
2019-05-03T08:10:25.442Z,73.63
2019-05-03T08:12:51.796Z,72.66
2019-05-03T08:15:18.567Z,72.54
2019-05-03T08:17:45.217Z,72.47
2019-05-03T08:20:11.961Z,72.36
2019-05-03T08:22:38.567Z,72.18
2019-05-03T08:25:05.465Z,72.83
2019-05-03T08:27:32.245Z,73.34
2019-05-03T08:29:58.943Z,73.08
2019-05-03T08:32:45.054Z,72.84
2019-05-03T08:35:31.151Z,73.46
2019-05-03T08:37:59.175Z,73.78
2019-05-03T08:43:21.739Z,74.47
2019-05-03T08:45:48.348Z,74.97
2019-05-03T08:48:15.250Z,74.42
2019-05-03T08:50:49.506Z,74.59
2019-05-03T08:53:16.145Z,74.23
2019-05-03T08:55:44.821Z,73.35
2019-05-03T08:58:17.577Z,73.37
2019-05-03T09:00:45.512Z,74.86
2019-05-03T09:03:19.536Z,74.59
2019-05-03T09:05:46.519Z,73.37
2019-05-03T09:08:20.766Z,72.63
2019-05-03T09:11:06.843Z,71.13
2019-05-03T09:13:53.004Z,72.05
2019-05-03T09:16:19.818Z,71.67
2019-05-03T09:18:55.041Z,71.84
2019-05-03T09:21:34.630Z,72.22
2019-05-03T09:24:11.112Z,71.79
2019-05-03T09:26:37.740Z,70.90
2019-05-03T09:29:05.566Z,71.25
2019-05-03T09:31:44.695Z,71.87
2019-05-03T09:34:17.860Z,71.00
2019-05-03T09:36:44.915Z,70.53
2019-05-03T09:39:24.473Z,71.05
2019-05-03T09:41:57.850Z,69.18
2019-05-03T09:44:24.623Z,69.78
2019-05-03T09:46:51.330Z,70.11
2019-05-03T09:49:17.965Z,70.27
2019-05-03T09:51:44.573Z,70.80
2019-05-03T09:57:10.195Z,69.90
2019-05-03T09:59:36.835Z,70.59
2019-05-03T10:02:04.784Z,70.44
2019-05-03T10:04:38.306Z,71.65
2019-05-03T10:07:05.037Z,71.53
2019-05-03T10:09:31.766Z,72.09
2019-05-03T10:14:37.416Z,71.00
2019-05-03T10:22:45.870Z,70.92
2019-05-03T10:25:24.890Z,69.85
2019-05-03T10:27:51.608Z,69.25
2019-05-03T10:36:01.935Z,68.12
2019-05-03T10:38:28.897Z,67.70
2019-05-03T10:40:55.596Z,67.16
2019-05-03T10:43:22.209Z,66.05
2019-05-03T10:45:48.837Z,62.33
2019-05-03T10:48:15.640Z,60.98
2019-05-03T10:50:56.214Z,59.36
2019-05-03T10:53:48.131Z,59.81
2019-05-03T10:56:35.802Z,58.80
2019-05-03T10:59:09.653Z,60.91
2019-05-03T11:01:55.731Z,62.47
2019-05-03T11:04:22.351Z,64.42
2019-05-03T11:06:48.979Z,65.71
2019-05-03T11:09:15.605Z,66.74
2019-05-03T11:11:45.086Z,68.96
2019-05-03T11:14:20.675Z,69.51
2019-05-03T11:16:47.359Z,70.58
2019-05-03T11:19:14.571Z,71.67
2019-05-03T11:21:48.486Z,72.53
2019-05-03T11:24:15.113Z,72.21
2019-05-03T11:29:20.547Z,73.12
2019-05-03T11:37:45.243Z,73.65
2019-05-03T11:43:26.509Z,74.52
2019-05-03T11:45:55.282Z,75.14
2019-05-03T11:48:31.558Z,76.03
2019-05-03T11:50:58.272Z,75.22
2019-05-03T11:53:25.193Z,74.78
2019-05-03T11:55:59.702Z,74.24
2019-05-03T11:58:27.330Z,74.24
2019-05-03T12:01:25.630Z,75.34
2019-05-03T12:04:04.838Z,74.54
2019-05-03T12:06:37.982Z,75.15
2019-05-03T12:09:05.697Z,74.45
2019-05-03T12:14:34.642Z,73.99
2019-05-03T12:20:09.200Z,74.35
2019-05-03T12:22:43.143Z,70.12
2019-05-03T12:25:38.229Z,68.96
2019-05-03T12:28:05.905Z,66.43
2019-05-03T12:30:40.434Z,67.91
2019-05-03T12:33:07.040Z,65.09
2019-05-03T12:35:35.719Z,65.18
2019-05-03T12:38:08.486Z,64.37
2019-05-03T12:40:35.253Z,66.05
2019-05-03T12:43:01.959Z,66.25
2019-05-03T12:45:28.590Z,67.11
2019-05-03T12:47:55.901Z,66.75
2019-05-03T12:50:30.219Z,64.34
2019-05-03T12:52:56.968Z,59.39
2019-05-03T12:55:24.742Z,59.18
2019-05-03T12:57:58.242Z,58.39
2019-05-03T13:03:30.074Z,60.01
2019-05-03T13:05:56.714Z,59.95
2019-05-03T13:08:45.563Z,60.18
2019-05-03T13:11:18.541Z,59.95
2019-05-03T13:13:45.363Z,59.14
2019-05-03T13:18:58.404Z,61.26
2019-05-03T13:21:25.341Z,62.20
2019-05-03T13:24:05.323Z,59.99
2019-05-03T13:26:38.296Z,58.70
2019-05-03T13:29:05.895Z,59.50
2019-05-03T13:31:57.502Z,58.42
2019-05-03T13:34:18.300Z,59.95
2019-05-03T13:36:45.635Z,61.96
2019-05-03T13:39:26.341Z,62.98
2019-05-03T13:41:58.409Z,63.83
2019-05-03T13:44:25.137Z,66.09
2019-05-03T13:46:51.862Z,66.20
2019-05-03T13:49:18.496Z,66.46
2019-05-03T13:51:45.286Z,65.80
2019-05-03T13:54:20.073Z,66.97
2019-05-03T13:56:46.758Z,67.80
2019-05-03T13:59:19.796Z,68.08
2019-05-03T14:01:48.533Z,68.10
2019-05-03T14:04:15.201Z,68.52
2019-05-03T14:06:41.830Z,69.85
2019-05-03T14:09:08.475Z,70.07
2019-05-03T14:11:35.401Z,70.11
2019-05-03T14:14:15.217Z,70.14
2019-05-03T14:16:48.462Z,70.09
2019-05-03T14:24:36.895Z,71.41
2019-05-03T14:27:05.487Z,70.23
2019-05-03T14:29:38.708Z,70.87
2019-05-03T14:32:05.377Z,69.98
2019-05-03T14:34:32.126Z,69.56
2019-05-03T14:36:58.852Z,69.58
2019-05-03T14:39:25.540Z,69.49
2019-05-03T14:41:52.207Z,69.17
2019-05-03T14:44:18.862Z,68.36
2019-05-03T14:46:45.933Z,70.27
2019-05-03T14:49:20.470Z,69.02
2019-05-03T14:51:47.201Z,70.35
2019-05-03T14:54:14.516Z,71.57
2019-05-03T14:57:08.147Z,69.91
2019-05-03T14:59:54.685Z,69.97
2019-05-03T15:02:45.940Z,71.82
2019-05-03T15:05:15.713Z,71.90
2019-05-03T15:07:42.335Z,71.16
2019-05-03T15:10:09.077Z,70.36
2019-05-03T15:12:36.102Z,70.00
2019-05-03T15:15:10.369Z,68.62
2019-05-03T15:17:36.999Z,67.53
2019-05-03T15:20:04.057Z,67.90
2019-05-03T15:22:30.775Z,68.26
2019-05-03T15:24:57.487Z,65.53
2019-05-03T15:27:24.762Z,65.75
2019-05-03T15:29:58.681Z,64.35
2019-05-03T15:32:25.326Z,64.81
2019-05-03T15:34:52.073Z,65.31
2019-05-03T15:37:18.708Z,63.92
2019-05-03T15:39:45.368Z,63.69
2019-05-03T15:42:12.057Z,64.01
2019-05-03T15:44:58.194Z,64.08
2019-05-03T15:50:10.834Z,64.73
2019-05-03T15:52:37.467Z,64.06
2019-05-03T15:55:04.726Z,63.65
2019-05-03T15:57:33.312Z,64.66
2019-05-03T16:00:01.087Z,64.69
2019-05-03T16:02:32.783Z,64.56
2019-05-03T16:05:01.716Z,64.48
2019-05-03T16:07:28.413Z,64.91
2019-05-03T16:12:49.520Z,66.35
2019-05-03T16:18:12.334Z,67.53
2019-05-03T16:20:41.112Z,68.39
2019-05-03T16:23:07.837Z,67.99
2019-05-03T16:25:35.599Z,68.60
2019-05-03T16:28:28.724Z,68.72
2019-05-03T16:31:14.913Z,68.61
2019-05-03T16:33:41.575Z,68.67
2019-05-03T16:36:08.262Z,68.79
2019-05-03T16:38:35.441Z,68.79
2019-05-03T16:44:16.312Z,69.70
2019-05-03T16:46:49.738Z,70.02
2019-05-03T16:49:16.410Z,69.84
2019-05-03T16:51:44.280Z,70.01
2019-05-03T16:54:17.914Z,70.04
2019-05-03T16:56:44.652Z,70.01
2019-05-03T16:59:11.412Z,70.04
2019-05-03T17:01:38.039Z,70.35
2019-05-03T17:04:25.165Z,70.01
2019-05-03T17:07:11.385Z,69.76
2019-05-03T17:12:27.988Z,70.08
2019-05-03T17:14:57.124Z,70.41
2019-05-03T17:17:29.247Z,70.55
2019-05-03T17:19:55.982Z,70.48
2019-05-03T17:22:22.612Z,70.59
2019-05-03T17:24:51.649Z,70.98
2019-05-03T17:27:25.028Z,71.18
2019-05-03T17:32:38.569Z,71.24
2019-05-03T17:35:05.438Z,71.52
2019-05-03T17:37:32.134Z,71.61
2019-05-03T17:40:19.463Z,71.72
2019-05-03T17:43:14.668Z,71.61
2019-05-03T17:48:28.779Z,72.16
2019-05-03T17:50:55.498Z,72.25
2019-05-03T17:53:41.621Z,72.17
2019-05-03T17:56:27.807Z,71.81
2019-05-03T17:59:15.200Z,71.97
2019-05-03T18:02:08.803Z,73.96
2019-05-03T18:04:55.088Z,73.84
2019-05-03T18:07:41.309Z,72.03
2019-05-03T18:13:02.648Z,74.17
2019-05-03T18:15:29.378Z,73.60
2019-05-03T18:17:56.012Z,72.72
2019-05-03T18:20:22.742Z,73.18
2019-05-03T18:22:49.361Z,72.15
2019-05-03T18:25:16.907Z,70.25
2019-05-03T18:27:44.564Z,69.90
2019-05-03T18:30:18.397Z,70.55
2019-05-03T18:32:45.297Z,70.87
2019-05-03T18:35:20.205Z,71.47
2019-05-03T18:40:51.446Z,72.27
2019-05-03T18:46:38.060Z,73.10
2019-05-03T18:49:04.740Z,73.44
2019-05-03T18:51:31.459Z,73.83
2019-05-03T18:53:58.169Z,74.20
2019-05-03T18:56:25.284Z,73.87
2019-05-03T18:59:04.970Z,74.24
2019-05-03T19:01:38.179Z,74.38
2019-05-03T19:04:32.423Z,74.32
2019-05-03T19:07:04.387Z,74.48
2019-05-03T19:09:55.445Z,74.65
2019-05-03T19:12:44.628Z,74.45
2019-05-03T19:15:17.347Z,73.75
2019-05-03T19:18:04.353Z,74.43
2019-05-03T19:20:38.512Z,74.01
2019-05-03T19:23:05.163Z,74.25
2019-05-03T19:25:44.052Z,74.36
2019-05-03T19:28:08.135Z,74.25
2019-05-03T19:33:37.255Z,74.42
2019-05-03T19:36:13.856Z,74.55
2019-05-03T19:38:40.649Z,74.86
2019-05-03T19:41:07.417Z,75.01
2019-05-03T19:43:35.566Z,75.13
2019-05-03T19:46:08.972Z,75.30
2019-05-03T19:48:35.753Z,75.34
2019-05-03T19:51:02.490Z,75.20
2019-05-03T19:53:48.702Z,75.29
2019-05-03T19:56:15.819Z,75.34
2019-05-03T19:58:44.199Z,75.20
2019-05-03T20:01:41.038Z,75.59
2019-05-03T20:04:35.715Z,75.62
2019-05-03T20:07:21.854Z,75.17
2019-05-03T20:09:48.774Z,75.50
2019-05-03T20:12:15.550Z,75.60
2019-05-03T20:14:42.371Z,75.22
2019-05-03T20:17:09.154Z,75.13
2019-05-03T20:19:36.026Z,75.48
2019-05-03T20:22:05.002Z,75.58
2019-05-03T20:24:37.558Z,75.61
2019-05-03T20:27:04.731Z,75.27
2019-05-03T20:29:31.533Z,75.49
2019-05-03T20:31:58.171Z,75.83
2019-05-03T20:34:25.054Z,75.48
2019-05-03T20:36:51.723Z,75.71
2019-05-03T20:39:18.390Z,75.93
2019-05-03T20:41:45.315Z,76.01
2019-05-03T20:44:24.932Z,76.12
2019-05-03T20:47:11.161Z,76.03
2019-05-03T20:49:37.843Z,75.75
2019-05-03T20:52:04.480Z,76.07
2019-05-03T20:54:31.173Z,76.33
2019-05-03T20:56:57.946Z,76.04
2019-05-03T20:59:25.339Z,75.68
2019-05-03T21:01:52.033Z,76.28
2019-05-03T21:04:18.700Z,76.18
2019-05-03T21:06:45.676Z,76.24
2019-05-03T21:09:14.605Z,76.36
2019-05-03T21:11:41.039Z,76.35
2019-05-03T21:14:07.770Z,76.14
2019-05-03T21:16:56.778Z,76.40
2019-05-03T21:19:32.030Z,76.38
2019-05-03T21:22:10.890Z,76.32
2019-05-03T21:24:57.124Z,76.37
2019-05-03T21:27:24.663Z,76.17
2019-05-03T21:29:52.175Z,76.35
2019-05-03T21:32:18.823Z,76.51
2019-05-03T21:34:45.539Z,76.61
2019-05-03T21:37:12.182Z,76.48
2019-05-03T21:39:38.838Z,76.11
2019-05-03T21:42:05.589Z,76.05
2019-05-03T21:44:33.430Z,76.00
2019-05-03T21:47:08.973Z,76.04
2019-05-03T21:49:39.728Z,76.07
2019-05-03T21:52:06.475Z,76.16
2019-05-03T21:54:34.645Z,76.24
2019-05-03T21:57:01.532Z,76.21
2019-05-03T21:59:28.169Z,76.43
2019-05-03T22:01:54.815Z,76.52
2019-05-03T22:04:21.531Z,76.60
2019-05-03T22:06:48.167Z,76.58
2019-05-03T22:09:14.901Z,76.61
2019-05-03T22:11:41.612Z,76.62
2019-05-03T22:14:15.076Z,76.66
2019-05-03T22:16:50.413Z,77.08
2019-05-03T22:19:19.364Z,77.41
2019-05-03T22:22:10.952Z,77.68
2019-05-03T22:24:44.664Z,77.66
2019-05-03T22:27:15.938Z,77.92
2019-05-03T22:29:44.652Z,77.82
2019-05-03T22:32:11.181Z,77.99
2019-05-03T22:34:37.871Z,78.06
2019-05-03T22:37:04.588Z,78.08
2019-05-03T22:39:31.227Z,78.25
2019-05-03T22:41:57.985Z,78.65
2019-05-03T22:44:25.338Z,78.59
2019-05-03T22:46:52.224Z,78.38
2019-05-03T22:49:18.868Z,78.61
2019-05-03T22:51:45.566Z,78.50
2019-05-03T22:54:12.206Z,78.42
2019-05-03T22:56:38.932Z,78.29
2019-05-03T22:59:05.613Z,78.00
2019-05-03T23:01:32.304Z,78.01
2019-05-03T23:03:59.028Z,77.80
2019-05-03T23:06:25.723Z,77.94
2019-05-03T23:08:55.970Z,77.83
2019-05-03T23:11:20.876Z,77.38
2019-05-03T23:14:00.792Z,77.20
2019-05-03T23:16:27.445Z,77.42
2019-05-03T23:18:54.784Z,77.34
2019-05-03T23:21:24.419Z,77.28
2019-05-03T23:23:51.837Z,77.04
2019-05-03T23:26:18.566Z,77.19
2019-05-03T23:28:46.050Z,77.13
2019-05-03T23:31:14.568Z,76.93
2019-05-03T23:33:41.219Z,77.02
2019-05-03T23:36:07.875Z,77.04
2019-05-03T23:38:34.498Z,77.16
2019-05-03T23:41:01.224Z,77.23
2019-05-03T23:43:27.862Z,77.37
2019-05-03T23:45:54.636Z,77.39
2019-05-03T23:48:21.292Z,77.55
2019-05-03T23:50:47.958Z,77.71
2019-05-03T23:53:15.388Z,78.03
2019-05-03T23:55:46.443Z,78.16
2019-05-03T23:58:13.050Z,78.13
